Matuku, Fiji
Current Conditions -  °F | °C
As of 9:00 PM on Thursday 27 Nov 2014 (Local Time) from NFNA Reporting Station
Broken Clouds Broken Clouds  
Wind Chill: 77°   Ceiling: 2200
Heat Index: 78°   Visibility: 25mi
Dew Point: 73°   Wind: 6mph
Humidity: 89%   Direction: 130°SE
Pressure: 29.8"   Gusts: NA
Location:  19.16°S, 179.76°E
Report Text: NFNA 270900Z 13005KT 40KM BKN022 SCT045 25/23 Q1009 RMK RR NIL
Loading
Personal Weather Stations






























Interactive Weather Map New forecast layout! Learn more

10-Day Weather Forecast

Advertisements
Track Severe Weather on mobile